Terminal Aerodrome Forecast
Issued by NWS

Home | Current Version | Previous Version | Text Only | Print | Product List | Glossary On
Versions: 1 2 3 4 5 6 7 8 9 10 11 12 13
000
FTUS45 KTFX 281743
TAFHLN
TAF
KHLN 281743Z 2818/2918 VRB05KT P6SM FEW070
     FM282000 34005KT P6SM VCTS SCT070CB
     FM290100 34008KT P6SM SCT070
     FM290600 VRB05KT P6SM SKC=

USA.gov is the U.S. government's official web portal to all federal, state and local government web resources and services.